Time;durP1;ratioP1;P1;durP2;ratioP2;P2;SDS_P1;SDS_P2;PMS_P1;PMS_P2;Temp;Humidity;BMP_temperature;BMP_pressure;BME280_temperature;BME280_humidity;BME280_pressure;Samples;Min_cycle;Max_cycle;Signal;HPM_P1;HPM_P2
2021/01/22 00:01:17;;;;;;;3.10;2.33;;;10.20;99.90;;;;;;5092522;28;20976;-46
2021/01/22 00:03:45;;;;;;;3.40;2.50;;;10.10;99.90;;;;;;5092470;28;20531;-46
2021/01/22 00:06:11;;;;;;;5.53;3.50;;;9.90;99.90;;;;;;5094990;28;20486;-45
2021/01/22 00:08:38;;;;;;;5.00;3.83;;;10.30;99.90;;;;;;5095660;28;20433;-45
2021/01/22 00:11:05;;;;;;;4.00;3.27;;;10.00;99.90;;;;;;5092466;28;20801;-45
2021/01/22 00:13:31;;;;;;;4.60;3.47;;;9.90;99.90;;;;;;5091841;28;20425;-47
2021/01/22 00:15:58;;;;;;;4.73;3.80;;;10.00;99.90;;;;;;5091848;28;20403;-45
2021/01/22 00:18:24;;;;;;;4.70;3.77;;;9.80;99.90;;;;;;5091906;28;20861;-46
2021/01/22 00:20:52;;;;;;;6.13;4.73;;;10.20;99.90;;;;;;5091745;28;20954;-45
2021/01/22 00:23:19;;;;;;;5.80;4.00;;;10.10;99.90;;;;;;5091580;28;20880;-46
2021/01/22 00:25:45;;;;;;;5.10;4.10;;;10.00;99.90;;;;;;5091874;28;20433;-45
2021/01/22 00:28:12;;;;;;;6.57;5.33;;;10.00;99.90;;;;;;5091701;28;20453;-46
2021/01/22 00:30:38;;;;;;;6.67;4.80;;;9.90;99.90;;;;;;5092003;28;20429;-46
2021/01/22 00:33:05;;;;;;;4.90;4.13;;;10.00;99.90;;;;;;5091434;28;20425;-46
2021/01/22 00:35:31;;;;;;;5.40;4.40;;;9.90;99.90;;;;;;5091947;28;20918;-45
2021/01/22 00:37:59;;;;;;;5.53;4.57;;;9.90;99.90;;;;;;5091990;28;20444;-47
2021/01/22 00:40:25;;;;;;;8.50;4.67;;;10.10;99.90;;;;;;5092703;28;20483;-46
2021/01/22 00:42:52;;;;;;;6.20;4.40;;;10.00;99.90;;;;;;5095640;28;20445;-47
2021/01/22 00:45:18;;;;;;;5.50;4.03;;;9.90;99.90;;;;;;5094909;28;20975;-46
2021/01/22 00:47:45;;;;;;;5.03;4.27;;;9.80;99.90;;;;;;5096706;28;20423;-46
2021/01/22 00:50:12;;;;;;;5.50;4.60;;;10.00;99.90;;;;;;5098864;28;20446;-46
2021/01/22 00:52:39;;;;;;;4.97;3.77;;;9.90;99.90;;;;;;5100245;28;20899;-46
2021/01/22 00:55:08;;;;;;;8.50;5.37;;;9.80;99.90;;;;;;5099174;28;20452;-45
2021/01/22 00:57:54;;;;;;;5.90;4.53;;;10.10;99.90;;;;;;5099862;28;20470;-46
2021/01/22 01:00:26;;;;;;;4.37;3.97;;;9.80;99.90;;;;;;5097256;28;20500;-46
2021/01/22 01:03:23;;;;;;;5.43;4.10;;;10.00;99.90;;;;;;5095683;28;20449;-46
2021/01/22 01:05:50;;;;;;;5.63;4.20;;;10.20;99.90;;;;;;5095716;28;20461;-45
2021/01/22 01:08:17;;;;;;;7.20;4.97;;;10.00;99.90;;;;;;5096404;28;20858;-46
2021/01/22 01:11:01;;;;;;;4.73;3.80;;;10.10;99.90;;;;;;5095637;28;20464;-46
2021/01/22 01:13:46;;;;;;;5.97;4.60;;;10.10;99.90;;;;;;5096886;28;20424;-46
2021/01/22 01:16:24;;;;;;;4.40;3.80;;;10.30;99.90;;;;;;5097366;28;20433;-45
2021/01/22 01:18:50;;;;;;;6.30;3.40;;;10.10;99.90;;;;;;5098124;28;20458;-46
2021/01/22 01:21:17;;;;;;;5.07;3.20;;;10.10;99.90;;;;;;5098284;28;20484;-47
2021/01/22 01:23:44;;;;;;;5.10;3.50;;;10.20;99.90;;;;;;5097496;28;20429;-46
2021/01/22 01:26:11;;;;;;;4.67;3.70;;;10.30;99.90;;;;;;5097612;28;20428;-44
2021/01/22 01:28:38;;;;;;;5.03;2.13;;;10.30;99.90;;;;;;5096997;28;20452;-45
2021/01/22 01:31:04;;;;;;;3.97;2.80;;;10.20;99.90;;;;;;5096996;28;20426;-46
2021/01/22 01:33:31;;;;;;;2.83;2.07;;;10.30;99.90;;;;;;5097376;28;20429;-46
2021/01/22 01:36:01;;;;;;;3.37;2.33;;;10.40;99.90;;;;;;5096281;28;20449;-47
2021/01/22 01:38:28;;;;;;;2.90;2.07;;;10.60;99.90;;;;;;5097277;28;20490;-45
2021/01/22 01:40:55;;;;;;;2.00;1.80;;;10.50;99.90;;;;;;5096938;28;20508;-44
2021/01/22 01:43:22;;;;;;;2.70;1.83;;;10.30;99.90;;;;;;5097039;28;20403;-46
2021/01/22 01:45:49;;;;;;;1.77;1.43;;;10.30;99.90;;;;;;5096437;28;20785;-46
2021/01/22 01:48:17;;;;;;;2.60;1.50;;;10.20;99.90;;;;;;5095455;28;20448;-47
2021/01/22 01:50:44;;;;;;;2.40;2.00;;;10.40;99.90;;;;;;5095645;28;20957;-46
2021/01/22 01:53:12;;;;;;;4.60;1.40;;;10.40;99.90;;;;;;5094170;28;20464;-47
2021/01/22 01:55:39;;;;;;;1.53;1.10;;;10.40;99.90;;;;;;5095130;28;20454;-47
2021/01/22 01:58:06;;;;;;;1.70;1.20;;;10.50;99.90;;;;;;5095338;28;20429;-47
2021/01/22 02:00:35;;;;;;;2.70;1.37;;;10.60;99.90;;;;;;5094627;28;20969;-47
2021/01/22 02:03:02;;;;;;;1.50;1.07;;;10.80;99.90;;;;;;5094030;28;20432;-47
2021/01/22 02:05:29;;;;;;;2.20;1.50;;;10.50;99.90;;;;;;5092997;28;20455;-47
2021/01/22 02:07:55;;;;;;;2.40;1.10;;;10.90;99.90;;;;;;5093964;28;21075;-47
2021/01/22 02:10:22;;;;;;;3.10;1.07;;;10.60;99.90;;;;;;5094044;28;20399;-47
2021/01/22 02:12:50;;;;;;;1.63;1.03;;;10.70;99.90;;;;;;5093708;28;20505;-47
2021/01/22 02:15:17;;;;;;;4.30;1.33;;;10.80;99.90;;;;;;5093936;28;20449;-47
2021/01/22 02:17:46;;;;;;;1.30;0.93;;;10.80;99.90;;;;;;5094131;28;20477;-45
2021/01/22 02:20:35;;;;;;;1.73;1.00;;;10.80;99.90;;;;;;5094127;28;20476;-46
2021/01/22 02:23:02;;;;;;;1.27;1.00;;;11.10;99.90;;;;;;5094137;28;20429;-44
2021/01/22 02:25:32;;;;;;;1.30;1.00;;;10.90;99.90;;;;;;5092796;28;20453;-44
2021/01/22 02:28:00;;;;;;;1.27;0.90;;;10.80;99.90;;;;;;5094309;28;20424;-44
2021/01/22 02:30:27;;;;;;;1.30;0.80;;;10.80;99.90;;;;;;5093921;28;20429;-47
2021/01/22 02:32:55;;;;;;;1.43;1.00;;;11.10;99.90;;;;;;5093159;28;20453;-46
2021/01/22 02:35:24;;;;;;;2.20;0.97;;;10.90;99.90;;;;;;5093572;28;20435;-46
2021/01/22 02:37:51;;;;;;;4.50;1.20;;;11.20;99.90;;;;;;5093479;28;20456;-46
2021/01/22 02:40:19;;;;;;;1.37;1.00;;;10.90;99.90;;;;;;5093485;28;20531;-45
2021/01/22 02:42:48;;;;;;;1.53;0.80;;;11.00;99.90;;;;;;5093360;28;20735;-45
2021/01/22 02:45:17;;;;;;;1.53;0.93;;;11.20;99.90;;;;;;5093653;28;20894;-46
2021/01/22 02:47:46;;;;;;;1.93;0.90;;;11.20;99.90;;;;;;5093577;28;20840;-45
2021/01/22 02:50:16;;;;;;;1.70;1.10;;;11.10;99.90;;;;;;5093566;28;20436;-45
2021/01/22 02:52:43;;;;;;;2.13;1.10;;;11.10;99.90;;;;;;5093859;28;20449;-45
2021/01/22 02:55:12;;;;;;;1.87;0.90;;;11.30;99.90;;;;;;5095893;28;20431;-45
2021/01/22 02:57:49;;;;;;;1.40;0.90;;;11.10;99.90;;;;;;5094179;28;20871;-45
2021/01/22 03:00:21;;;;;;;1.40;0.80;;;11.10;99.90;;;;;;5093633;28;20467;-45
2021/01/22 03:02:54;;;;;;;1.33;0.80;;;11.10;99.90;;;;;;5093059;28;20544;-47
2021/01/22 03:05:24;;;;;;;1.70;1.07;;;11.20;99.90;;;;;;5093179;28;20437;-45
2021/01/22 03:07:55;;;;;;;3.57;1.27;;;11.10;99.90;;;;;;5093240;28;20409;-45
2021/01/22 03:10:25;;;;;;;1.40;0.80;;;11.00;99.90;;;;;;5093137;28;20531;-46
2021/01/22 03:12:53;;;;;;;3.23;1.00;;;10.80;99.90;;;;;;5091388;28;21026;-46
2021/01/22 03:15:21;;;;;;;2.80;1.17;;;11.00;99.90;;;;;;5092873;28;20429;-46
2021/01/22 03:17:49;;;;;;;2.30;1.00;;;10.90;99.90;;;;;;5092806;28;20425;-46
2021/01/22 03:20:16;;;;;;;1.50;1.00;;;11.00;99.90;;;;;;5092637;28;20500;-46
2021/01/22 03:22:43;;;;;;;2.60;0.90;;;10.70;99.90;;;;;;5092338;28;20515;-46
2021/01/22 03:25:10;;;;;;;2.30;1.10;;;10.80;99.90;;;;;;5092642;28;20433;-46
2021/01/22 03:27:37;;;;;;;1.47;1.13;;;10.90;99.90;;;;;;5092646;28;20435;-46
2021/01/22 03:30:05;;;;;;;1.50;0.80;;;11.10;99.90;;;;;;5092493;28;20929;-45
2021/01/22 03:32:32;;;;;;;1.60;1.07;;;10.80;99.90;;;;;;5092297;28;20436;-45
2021/01/22 03:34:59;;;;;;;2.47;0.97;;;10.90;99.90;;;;;;5092564;28;20468;-47
2021/01/22 03:37:26;;;;;;;1.07;0.70;;;11.20;99.90;;;;;;5092657;28;20453;-46
2021/01/22 03:39:52;;;;;;;1.73;0.93;;;10.90;99.90;;;;;;5092476;28;20472;-46
2021/01/22 03:42:19;;;;;;;1.20;0.80;;;11.10;99.90;;;;;;5092218;28;20478;-46
2021/01/22 03:44:45;;;;;;;1.30;0.80;;;11.00;99.90;;;;;;5092157;28;20428;-46
2021/01/22 03:47:12;;;;;;;1.97;1.00;;;10.80;99.90;;;;;;5092082;28;20766;-46
2021/01/22 03:49:39;;;;;;;1.00;0.60;;;10.90;99.90;;;;;;5092228;28;20437;-47
2021/01/22 03:52:06;;;;;;;1.20;0.80;;;11.20;99.90;;;;;;5092131;28;20449;-46
2021/01/22 03:54:32;;;;;;;1.67;1.57;;;10.80;99.90;;;;;;5090895;28;20830;-47
2021/01/22 03:56:59;;;;;;;2.03;0.93;;;10.90;99.90;;;;;;5090962;28;20866;-47
2021/01/22 03:59:25;;;;;;;2.10;0.90;;;10.90;99.90;;;;;;5091788;28;20433;-47
2021/01/22 04:01:52;;;;;;;1.43;1.00;;;11.00;99.90;;;;;;5092154;28;20431;-47
2021/01/22 04:04:18;;;;;;;1.50;1.00;;;10.80;99.90;;;;;;5090351;28;20423;-47
2021/01/22 04:06:45;;;;;;;1.97;1.00;;;10.90;99.90;;;;;;5092176;28;20478;-45
2021/01/22 04:09:12;;;;;;;1.30;0.73;;;10.70;99.90;;;;;;5092972;28;20433;-47
2021/01/22 04:11:38;;;;;;;1.87;0.90;;;10.90;99.90;;;;;;5115990;22;20534;-46
2021/01/22 04:14:05;;;;;;;3.97;1.20;;;11.00;99.90;;;;;;5091621;28;20424;-47
2021/01/22 04:16:31;;;;;;;1.50;1.03;;;10.90;99.90;;;;;;5091378;28;20841;-46
2021/01/22 04:18:58;;;;;;;1.70;0.90;;;10.90;99.90;;;;;;5091782;28;20512;-47
2021/01/22 04:21:24;;;;;;;1.20;1.00;;;11.10;99.90;;;;;;5091900;28;20458;-46
2021/01/22 04:23:52;;;;;;;1.20;0.77;;;10.90;99.90;;;;;;5091783;28;20905;-46
2021/01/22 04:26:18;;;;;;;1.80;0.87;;;10.90;99.90;;;;;;5092244;28;20782;-46
2021/01/22 04:28:45;;;;;;;3.53;1.00;;;10.90;99.90;;;;;;5090999;28;20459;-46
2021/01/22 04:31:11;;;;;;;1.40;1.00;;;10.90;99.90;;;;;;5091819;28;20505;-46
2021/01/22 04:33:38;;;;;;;1.30;0.97;;;10.90;99.90;;;;;;5092051;28;20786;-47
2021/01/22 04:36:05;;;;;;;1.63;1.20;;;11.00;99.90;;;;;;5092096;28;20408;-47
2021/01/22 04:38:31;;;;;;;1.73;0.90;;;11.10;99.90;;;;;;5091964;28;20963;-47
2021/01/22 04:41:00;;;;;;;2.40;1.40;;;11.00;99.90;;;;;;5091646;28;20464;-47
2021/01/22 04:43:26;;;;;;;2.20;1.30;;;11.30;99.90;;;;;;5091528;28;20428;-47
2021/01/22 04:45:55;;;;;;;1.50;0.87;;;11.40;99.90;;;;;;5092059;28;20866;-48
2021/01/22 04:48:21;;;;;;;2.40;0.90;;;11.10;99.90;;;;;;5093522;28;20433;-46
2021/01/22 04:50:49;;;;;;;1.40;0.90;;;11.00;99.90;;;;;;5092271;28;20425;-48
2021/01/22 04:53:17;;;;;;;2.10;1.10;;;11.00;99.90;;;;;;5091391;28;20436;-46
2021/01/22 04:55:46;;;;;;;1.43;0.90;;;11.00;99.90;;;;;;5090092;28;20457;-48
2021/01/22 04:58:16;;;;;;;1.53;1.10;;;10.90;99.90;;;;;;5090209;28;20817;-46
2021/01/22 05:00:44;;;;;;;1.60;1.00;;;11.00;99.90;;;;;;5091492;28;20535;-46
2021/01/22 05:03:11;;;;;;;1.87;1.00;;;10.90;99.90;;;;;;5091158;28;20455;-46
2021/01/22 05:05:38;;;;;;;9.23;1.57;;;10.90;99.90;;;;;;5091920;28;20433;-47
2021/01/22 05:08:05;;;;;;;2.80;1.10;;;11.10;99.90;;;;;;5091583;28;20533;-47
2021/01/22 05:10:31;;;;;;;2.63;1.50;;;10.80;99.90;;;;;;5092044;28;20455;-45
2021/01/22 05:12:58;;;;;;;1.40;0.90;;;10.80;99.90;;;;;;5091441;28;20857;-47
2021/01/22 05:15:26;;;;;;;2.30;1.40;;;10.80;99.90;;;;;;5091932;28;20468;-45
2021/01/22 05:17:58;;;;;;;2.40;1.17;;;10.70;99.90;;;;;;5091715;28;20425;-47
2021/01/22 05:20:33;;;;;;;2.43;1.27;;;10.90;99.90;;;;;;5091853;28;20994;-46
2021/01/22 05:23:01;;;;;;;1.70;1.23;;;10.80;99.90;;;;;;5091237;28;20448;-47
2021/01/22 05:25:28;;;;;;;2.33;1.10;;;11.00;99.90;;;;;;5091504;28;20452;-47
2021/01/22 05:27:56;;;;;;;1.63;1.00;;;10.70;99.90;;;;;;5092657;28;20391;-47
2021/01/22 05:30:25;;;;;;;1.50;1.30;;;10.80;99.90;;;;;;5095020;28;20827;-47
2021/01/22 05:32:53;;;;;;;2.90;1.40;;;11.10;99.90;;;;;;5094319;28;20874;-47
2021/01/22 05:35:29;;;;;;;2.57;1.40;;;10.80;99.90;;;;;;5094728;28;20513;-46
2021/01/22 05:37:56;;;;;;;1.37;0.90;;;10.90;99.90;;;;;;5094807;28;20893;-46
2021/01/22 05:40:23;;;;;;;3.43;1.33;;;10.60;99.90;;;;;;5094740;28;20949;-46
2021/01/22 05:42:51;;;;;;;2.20;1.53;;;10.50;99.90;;;;;;5094154;28;20451;-46
2021/01/22 05:45:35;;;;;;;3.27;1.50;;;10.60;99.90;;;;;;5094229;28;20445;-46
2021/01/22 05:48:03;;;;;;;1.90;1.20;;;10.60;99.90;;;;;;5093242;28;20445;-51
2021/01/22 05:50:44;;;;;;;1.93;1.17;;;10.80;99.90;;;;;;5094268;28;20471;-46
2021/01/22 05:53:15;;;;;;;3.83;2.80;;;10.60;99.90;;;;;;5093880;28;20445;-45
2021/01/22 05:55:41;;;;;;;2.43;1.70;;;10.50;99.90;;;;;;5094522;28;20440;-46
2021/01/22 05:58:08;;;;;;;6.30;1.30;;;10.60;99.90;;;;;;5094180;28;20403;-46
2021/01/22 06:00:35;;;;;;;1.70;1.20;;;10.40;99.90;;;;;;5094121;28;20996;-46
2021/01/22 06:03:01;;;;;;;3.37;1.20;;;10.70;99.90;;;;;;5093828;28;20448;-46
2021/01/22 06:05:29;;;;;;;3.67;1.10;;;10.60;99.90;;;;;;5094289;28;20433;-45
2021/01/22 06:08:07;;;;;;;1.90;1.10;;;10.70;99.90;;;;;;5094420;28;20437;-45
2021/01/22 06:10:39;;;;;;;2.53;1.40;;;10.50;99.90;;;;;;5093935;28;20437;-46
2021/01/22 06:13:09;;;;;;;4.70;1.60;;;10.60;99.90;;;;;;5093213;28;20503;-46
2021/01/22 06:15:36;;;;;;;5.60;2.00;;;10.40;99.90;;;;;;5094012;28;20408;-46
2021/01/22 06:18:03;;;;;;;2.17;1.37;;;10.90;99.90;;;;;;5093936;28;20425;-46
2021/01/22 06:20:36;;;;;;;2.80;1.10;;;10.80;99.90;;;;;;5093486;28;20468;-46
2021/01/22 06:23:07;;;;;;;1.50;1.10;;;10.80;99.90;;;;;;5094161;28;20676;-47
2021/01/22 06:25:34;;;;;;;4.10;1.40;;;10.40;99.90;;;;;;5093497;28;20866;-46
2021/01/22 06:28:02;;;;;;;1.70;1.10;;;10.80;99.90;;;;;;5094301;28;20425;-46
2021/01/22 06:30:31;;;;;;;3.00;2.23;;;10.30;99.90;;;;;;5093996;28;20939;-47
2021/01/22 06:32:59;;;;;;;4.60;2.97;;;10.60;99.90;;;;;;5094297;28;20436;-46
2021/01/22 06:35:28;;;;;;;4.13;2.67;;;10.70;99.90;;;;;;5095039;28;20433;-45
2021/01/22 06:37:58;;;;;;;5.67;3.70;;;10.80;99.90;;;;;;5093813;28;20801;-46
2021/01/22 06:40:25;;;;;;;3.43;2.43;;;10.70;99.90;;;;;;5094860;28;20503;-45
2021/01/22 06:42:52;;;;;;;2.93;2.73;;;10.80;99.90;;;;;;5093884;28;20453;-47
2021/01/22 06:45:20;;;;;;;2.03;1.40;;;10.20;99.90;;;;;;5093696;28;20421;-46
2021/01/22 06:48:00;;;;;;;2.20;1.53;;;10.60;99.90;;;;;;5093056;28;20936;-46
2021/01/22 06:50:27;;;;;;;2.93;1.30;;;10.60;99.90;;;;;;5093042;28;20425;-46
2021/01/22 06:53:05;;;;;;;1.43;1.10;;;10.60;99.90;;;;;;5092680;28;20468;-45
2021/01/22 06:55:32;;;;;;;5.10;1.40;;;10.80;99.90;;;;;;5093024;28;20837;-46
2021/01/22 06:58:26;;;;;;;6.13;1.70;;;10.60;99.90;;;;;;5092961;28;20874;-46
2021/01/22 07:00:54;;;;;;;3.17;1.73;;;10.50;99.90;;;;;;5046130;28;20480;-46
2021/01/22 07:03:50;;;;;;;3.43;1.83;;;10.80;99.90;;;;;;5093221;28;20482;-47
2021/01/22 07:06:51;;;;;;;1.67;1.30;;;10.70;99.90;;;;;;5092942;28;20891;-47
2021/01/22 07:09:19;;;;;;;4.37;1.70;;;10.60;99.90;;;;;;5092917;28;20433;-47
2021/01/22 07:11:56;;;;;;;3.10;1.60;;;10.60;99.90;;;;;;5092645;28;21065;-48
2021/01/22 07:14:42;;;;;;;4.43;1.90;;;10.50;99.90;;;;;;5093094;28;20864;-47
2021/01/22 07:17:18;;;;;;;4.20;1.83;;;10.60;99.90;;;;;;5093497;28;20437;-46
2021/01/22 07:19:59;;;;;;;3.10;1.70;;;10.70;99.90;;;;;;5093672;28;20432;-47
2021/01/22 07:22:28;;;;;;;4.63;1.63;;;11.10;99.90;;;;;;5093197;28;20810;-48
2021/01/22 07:24:56;;;;;;;2.77;1.67;;;11.00;99.90;;;;;;5092853;28;20482;-47
2021/01/22 07:27:23;;;;;;;6.87;1.37;;;10.80;99.90;;;;;;5091456;28;20920;-46
2021/01/22 07:30:09;;;;;;;7.70;2.23;;;10.70;99.90;;;;;;5093248;28;20438;-46
2021/01/22 07:32:37;;;;;;;3.47;1.90;;;10.70;99.90;;;;;;5093230;28;20459;-47
2021/01/22 07:35:04;;;;;;;3.30;2.13;;;10.60;99.90;;;;;;5093943;28;20429;-46
2021/01/22 07:37:37;;;;;;;1.90;1.70;;;10.80;99.90;;;;;;5093958;28;20925;-46
2021/01/22 07:40:08;;;;;;;2.97;1.60;;;10.80;99.90;;;;;;5093440;28;20496;-47
2021/01/22 07:42:35;;;;;;;3.23;1.67;;;10.90;99.90;;;;;;5093522;28;20477;-46
2021/01/22 07:45:10;;;;;;;3.60;2.27;;;11.00;99.90;;;;;;5093287;28;20528;-46
2021/01/22 07:47:39;;;;;;;5.43;1.87;;;11.00;99.90;;;;;;5093151;28;20424;-47
2021/01/22 07:50:08;;;;;;;1.70;1.40;;;10.80;99.90;;;;;;5091641;28;20433;-46
2021/01/22 07:52:39;;;;;;;4.00;1.40;;;11.10;99.90;;;;;;5091956;28;20461;-46
2021/01/22 07:55:15;;;;;;;3.37;1.30;;;11.10;99.90;;;;;;5092517;28;20436;-46
2021/01/22 07:57:42;;;;;;;5.77;2.60;;;10.90;99.90;;;;;;5092252;28;20434;-47
2021/01/22 08:00:11;;;;;;;4.33;2.43;;;11.10;99.90;;;;;;5091966;28;20472;-47
2021/01/22 08:02:55;;;;;;;3.50;1.33;;;11.10;99.90;;;;;;5091995;28;20455;-47
2021/01/22 08:05:29;;;;;;;2.20;1.40;;;11.10;99.90;;;;;;5091884;28;20417;-46
2021/01/22 08:07:56;;;;;;;3.63;1.87;;;11.10;99.90;;;;;;5091752;28;20467;-47
2021/01/22 08:10:28;;;;;;;2.80;1.60;;;11.40;99.90;;;;;;5091920;28;20437;-46
2021/01/22 08:12:56;;;;;;;4.17;1.67;;;11.20;99.90;;;;;;5090842;28;20619;-46
2021/01/22 08:15:23;;;;;;;2.30;1.70;;;11.20;99.90;;;;;;5091423;28;20444;-46
2021/01/22 08:17:50;;;;;;;5.27;1.80;;;11.10;99.90;;;;;;5091624;28;20429;-46
2021/01/22 08:20:19;;;;;;;8.37;2.27;;;11.40;99.90;;;;;;5091647;28;20540;-47
2021/01/22 08:22:52;;;;;;;4.60;1.97;;;11.40;99.90;;;;;;5090967;28;20882;-48
2021/01/22 08:25:29;;;;;;;3.40;1.33;;;11.40;99.90;;;;;;5091667;28;20437;-46
2021/01/22 08:27:56;;;;;;;5.10;1.63;;;11.40;99.90;;;;;;5091414;28;20426;-46
2021/01/22 08:30:24;;;;;;;3.80;1.47;;;11.40;99.90;;;;;;5091683;28;20495;-46
2021/01/22 08:32:52;;;;;;;7.13;1.80;;;11.70;99.90;;;;;;5090980;28;20531;-46
2021/01/22 08:35:19;;;;;;;4.20;1.87;;;11.50;99.90;;;;;;5091383;28;20794;-46
2021/01/22 08:37:45;;;;;;;6.30;1.60;;;11.70;99.90;;;;;;5090202;28;20475;-47
2021/01/22 08:40:13;;;;;;;2.17;1.50;;;11.80;99.90;;;;;;5091540;28;20478;-47
2021/01/22 08:42:41;;;;;;;3.60;1.80;;;11.60;99.90;;;;;;5089896;28;20547;-47
2021/01/22 08:45:11;;;;;;;4.10;1.60;;;11.70;99.90;;;;;;5091540;28;20429;-47
2021/01/22 08:47:41;;;;;;;2.80;1.70;;;11.60;99.90;;;;;;5091604;28;20516;-48
2021/01/22 08:50:09;;;;;;;5.67;1.40;;;11.60;99.90;;;;;;5091088;28;20571;-47
2021/01/22 08:52:36;;;;;;;1.80;1.33;;;11.70;99.90;;;;;;5090825;28;20522;-47
2021/01/22 08:55:02;;;;;;;2.60;0.83;;;11.20;99.90;;;;;;5091194;28;20625;-48
2021/01/22 08:57:30;;;;;;;2.40;1.37;;;11.40;99.90;;;;;;5091436;28;20810;-46
2021/01/22 08:59:59;;;;;;;5.53;2.57;;;11.00;99.90;;;;;;5089812;28;20866;-47
2021/01/22 09:02:36;;;;;;;3.40;0.90;;;11.20;99.90;;;;;;5093719;28;20462;-47
2021/01/22 09:05:11;;;;;;;1.60;1.00;;;11.10;99.90;;;;;;5092105;28;21008;-48
2021/01/22 09:07:38;;;;;;;8.60;1.80;;;10.90;99.90;;;;;;5092695;28;20430;-48
2021/01/22 09:10:06;;;;;;;2.73;1.47;;;10.60;99.90;;;;;;5094420;28;20806;-48
2021/01/22 09:12:33;;;;;;;2.57;1.20;;;10.80;99.90;;;;;;5094862;28;20495;-48
2021/01/22 09:15:03;;;;;;;2.10;1.10;;;10.90;99.90;;;;;;5095174;28;20522;-48
2021/01/22 09:17:41;;;;;;;5.60;1.40;;;10.80;99.90;;;;;;5093070;28;20556;-46
2021/01/22 09:20:16;;;;;;;3.00;1.33;;;10.60;99.90;;;;;;5094807;28;20501;-45
2021/01/22 09:22:45;;;;;;;2.97;1.23;;;10.80;99.90;;;;;;5094202;28;20459;-47
2021/01/22 09:25:14;;;;;;;1.60;1.20;;;10.80;99.90;;;;;;5094662;28;20517;-47
2021/01/22 09:27:42;;;;;;;3.03;1.13;;;10.70;99.90;;;;;;5094595;28;20429;-48
2021/01/22 09:30:12;;;;;;;6.40;1.77;;;11.00;99.90;;;;;;5094359;28;20404;-47
2021/01/22 09:32:39;;;;;;;2.50;1.23;;;10.60;99.90;;;;;;5094201;28;20449;-46
2021/01/22 09:35:07;;;;;;;1.43;1.17;;;10.90;99.90;;;;;;5080539;28;20512;-46
2021/01/22 09:37:33;;;;;;;3.07;1.50;;;10.70;99.90;;;;;;5093185;28;20577;-47
2021/01/22 09:40:00;;;;;;;3.73;1.40;;;10.90;99.90;;;;;;5094104;28;20445;-48
2021/01/22 09:42:27;;;;;;;3.00;0.90;;;10.70;99.90;;;;;;5092885;28;20464;-47
2021/01/22 09:44:53;;;;;;;2.73;1.17;;;10.70;99.90;;;;;;5094147;28;20548;-47
2021/01/22 09:47:21;;;;;;;4.57;2.00;;;10.80;99.90;;;;;;5093576;28;20436;-46
2021/01/22 09:49:48;;;;;;;4.27;2.17;;;10.80;99.90;;;;;;5094404;28;20195;-47
2021/01/22 09:52:15;;;;;;;5.20;2.10;;;10.70;99.90;;;;;;5093947;28;20525;-48
2021/01/22 09:54:42;;;;;;;6.07;1.50;;;11.00;99.90;;;;;;5094352;28;20502;-47
2021/01/22 09:57:09;;;;;;;4.70;1.80;;;10.80;99.90;;;;;;5094175;28;20502;-47
2021/01/22 09:59:36;;;;;;;2.07;1.27;;;10.90;99.90;;;;;;5094191;28;20497;-47
2021/01/22 10:02:03;;;;;;;4.20;1.10;;;10.70;99.90;;;;;;5094023;28;20492;-47
2021/01/22 10:04:31;;;;;;;2.60;1.57;;;10.80;99.90;;;;;;5094363;28;20433;-48
2021/01/22 10:06:57;;;;;;;2.43;1.50;;;11.00;99.90;;;;;;5094324;28;20433;-48
2021/01/22 10:09:25;;;;;;;2.17;1.30;;;10.80;99.90;;;;;;5093778;28;20425;-47
2021/01/22 10:11:52;;;;;;;3.30;1.80;;;10.50;99.90;;;;;;5094182;28;20453;-48
2021/01/22 10:14:18;;;;;;;3.50;1.50;;;10.80;99.90;;;;;;5093567;28;20437;-46
2021/01/22 10:16:45;;;;;;;10.50;2.47;;;10.50;99.90;;;;;;5095133;28;20751;-46
2021/01/22 10:19:12;;;;;;;4.63;2.27;;;10.80;99.90;;;;;;5095183;28;20517;-47
2021/01/22 10:21:39;;;;;;;1.90;1.10;;;11.10;99.90;;;;;;5100808;28;20480;-46
2021/01/22 10:24:06;;;;;;;2.60;1.17;;;10.80;99.90;;;;;;5093079;28;20455;-46
2021/01/22 10:26:33;;;;;;;4.03;1.47;;;11.00;99.90;;;;;;5093171;28;20454;-47
2021/01/22 10:29:00;;;;;;;3.77;1.47;;;11.00;99.90;;;;;;5093053;28;20441;-47
2021/01/22 10:31:26;;;;;;;2.27;1.43;;;11.20;99.90;;;;;;5092592;28;20536;-46
2021/01/22 10:33:53;;;;;;;5.33;1.43;;;11.00;99.90;;;;;;5092824;28;20521;-47
2021/01/22 10:36:20;;;;;;;4.60;1.77;;;11.00;99.90;;;;;;5092860;28;20452;-48
2021/01/22 10:38:48;;;;;;;3.13;1.60;;;11.00;99.90;;;;;;5093215;28;20519;-48
2021/01/22 10:41:14;;;;;;;4.37;1.97;;;11.00;99.90;;;;;;5091485;28;20492;-48
2021/01/22 10:43:41;;;;;;;3.63;2.00;;;10.50;99.90;;;;;;5092500;28;20437;-46
2021/01/22 10:46:07;;;;;;;2.07;1.43;;;10.60;99.90;;;;;;5092732;28;21005;-48
2021/01/22 10:48:34;;;;;;;4.50;1.50;;;10.50;99.90;;;;;;5092643;28;20507;-49
2021/01/22 10:51:00;;;;;;;1.67;1.00;;;10.70;99.90;;;;;;5092436;28;20479;-49
2021/01/22 10:53:27;;;;;;;1.50;1.03;;;10.80;99.90;;;;;;5092829;28;20459;-48
2021/01/22 10:55:55;;;;;;;2.00;1.10;;;11.00;99.90;;;;;;5093331;28;20430;-48
2021/01/22 10:58:21;;;;;;;2.00;1.30;;;10.80;99.90;;;;;;5091765;28;20515;-49
2021/01/22 11:00:48;;;;;;;2.77;1.53;;;10.80;99.90;;;;;;5093529;28;20483;-47
2021/01/22 11:03:14;;;;;;;1.93;1.03;;;11.20;99.90;;;;;;5091875;28;20456;-46
2021/01/22 11:05:41;;;;;;;2.37;1.30;;;10.90;99.90;;;;;;5092475;28;20437;-46
2021/01/22 11:08:07;;;;;;;2.20;1.60;;;10.80;99.90;;;;;;5092546;28;20482;-46
2021/01/22 11:10:34;;;;;;;2.53;1.23;;;10.90;99.90;;;;;;5092505;28;20472;-46
2021/01/22 11:13:02;;;;;;;2.37;1.47;;;10.60;99.90;;;;;;5091768;28;20467;-46
2021/01/22 11:15:29;;;;;;;2.70;1.20;;;10.60;99.90;;;;;;5092123;28;20428;-48
2021/01/22 11:17:56;;;;;;;1.70;1.10;;;10.70;99.90;;;;;;5090032;28;20460;-46
2021/01/22 11:20:23;;;;;;;1.80;1.00;;;10.70;99.90;;;;;;5091543;28;20468;-46
2021/01/22 11:22:49;;;;;;;3.93;1.23;;;10.70;99.90;;;;;;5090380;28;20468;-46
2021/01/22 11:25:17;;;;;;;8.97;1.60;;;10.70;99.90;;;;;;5092011;28;21097;-47
2021/01/22 11:27:44;;;;;;;3.07;1.90;;;10.80;99.90;;;;;;5091960;28;20468;-46
2021/01/22 11:30:13;;;;;;;5.17;2.73;;;10.60;99.90;;;;;;5091855;28;20433;-47
2021/01/22 11:32:40;;;;;;;3.30;1.90;;;10.60;99.90;;;;;;5090229;28;20488;-46
2021/01/22 11:35:09;;;;;;;2.00;1.10;;;10.60;99.90;;;;;;5091764;28;20801;-47
2021/01/22 11:37:37;;;;;;;3.73;1.70;;;10.80;99.90;;;;;;5091958;28;20465;-47
2021/01/22 11:40:06;;;;;;;2.80;1.10;;;10.70;99.90;;;;;;5091967;28;20787;-47
2021/01/22 11:42:33;;;;;;;3.77;1.50;;;10.80;99.90;;;;;;5091521;28;20792;-49
2021/01/22 11:45:00;;;;;;;2.80;1.27;;;10.80;99.90;;;;;;5091901;28;20433;-47
2021/01/22 11:47:27;;;;;;;2.37;1.30;;;10.90;99.90;;;;;;5091969;28;20425;-47
2021/01/22 11:49:54;;;;;;;5.43;1.40;;;10.80;99.90;;;;;;5092689;28;20414;-45
2021/01/22 11:52:21;;;;;;;2.60;1.20;;;10.80;99.90;;;;;;5092405;28;20463;-46
2021/01/22 11:54:47;;;;;;;2.50;1.50;;;10.90;99.90;;;;;;5092352;28;20432;-46
2021/01/22 11:57:14;;;;;;;5.83;1.80;;;10.70;99.90;;;;;;5091742;28;20447;-47
2021/01/22 11:59:41;;;;;;;2.90;1.90;;;10.90;99.90;;;;;;5091647;28;20806;-46
2021/01/22 12:02:07;;;;;;;5.53;1.83;;;10.70;99.90;;;;;;5091401;28;20480;-46
2021/01/22 12:04:35;;;;;;;5.80;1.60;;;10.70;99.90;;;;;;5091329;28;20421;-46
2021/01/22 12:07:02;;;;;;;3.50;1.53;;;10.50;99.90;;;;;;5092075;28;20471;-46
2021/01/22 12:09:28;;;;;;;6.90;3.10;;;10.40;99.90;;;;;;5090353;28;20441;-48
2021/01/22 12:11:55;;;;;;;1.80;1.37;;;10.60;99.90;;;;;;5090304;28;20484;-46
2021/01/22 12:14:22;;;;;;;9.87;1.60;;;11.00;99.90;;;;;;5090843;28;20441;-47
2021/01/22 12:16:48;;;;;;;4.37;2.00;;;10.50;99.90;;;;;;5091652;28;20775;-47
2021/01/22 12:19:15;;;;;;;6.40;2.50;;;10.50;99.90;;;;;;5091066;28;20444;-45
2021/01/22 12:21:42;;;;;;;3.87;1.27;;;10.40;99.90;;;;;;5091877;28;20480;-45
2021/01/22 12:24:09;;;;;;;3.70;1.40;;;10.50;99.90;;;;;;5091143;28;20440;-47
2021/01/22 12:26:35;;;;;;;3.67;2.33;;;10.30;99.90;;;;;;5091148;28;20774;-46
2021/01/22 12:29:02;;;;;;;7.77;1.97;;;10.30;99.90;;;;;;5091421;28;20436;-46
2021/01/22 12:31:28;;;;;;;8.70;2.73;;;10.40;99.90;;;;;;5089444;28;20892;-47
2021/01/22 12:33:55;;;;;;;7.80;1.83;;;10.40;99.90;;;;;;5091230;28;20433;-46
2021/01/22 12:36:22;;;;;;;11.57;2.70;;;10.40;99.90;;;;;;5091986;28;20467;-46
2021/01/22 12:38:49;;;;;;;7.17;3.03;;;10.50;99.90;;;;;;5095091;28;20432;-47
2021/01/22 12:41:16;;;;;;;3.90;1.73;;;10.40;99.90;;;;;;5095195;28;20735;-46
2021/01/22 12:43:42;;;;;;;5.87;2.53;;;10.40;99.90;;;;;;5095097;28;20433;-48
2021/01/22 12:46:09;;;;;;;3.97;1.67;;;10.30;99.90;;;;;;5094733;28;20468;-46
2021/01/22 12:48:36;;;;;;;5.30;1.60;;;10.80;99.90;;;;;;5094432;28;20937;-46
2021/01/22 12:51:02;;;;;;;4.80;1.60;;;10.60;99.90;;;;;;5094514;28;20429;-47
2021/01/22 12:53:29;;;;;;;3.50;1.57;;;10.50;99.90;;;;;;5094619;28;20502;-47
2021/01/22 12:55:56;;;;;;;6.07;3.07;;;10.60;99.90;;;;;;5093550;28;20544;-47